الصفحة الرئيسية
METAR-TAF:

METAR-TAF

مطار :

مطار شنيانغ الدولي

شنيانغ, جمهورية الصين الشعبية

دائرة عرض: 41-48N, خط طول: 123-24E, ارتفاع: 35 متر

مراقبة الطقس الحالي

تاريخ ووقت الإصدار 21 دقيقة قبل الساعة 21:00UTC
ريح 4 عقدة من الجنوب
درجة الحرارة 12°درجة مئوية
الرطوبة 82%
ضغط 1008 hPa
الرؤية 10 كم أو أكثر
الغيوم لا تقل 1500 م ولا وجود لمزنة ركامية السحاب الأسود

METAR: ZYTX 252100Z 17002MPS CAVOK 12/09 Q1008 NOSIG

زمن: 05:21 (21:21 UTC)

توقعات

تاريخ ووقت الإصدار 6ساعات و 16 دقيقة قبل الساعة 15:05UTC
التوقعات صالحة من25 الساعة 18 UTC إلى 26 الساعة 18 UTC
ريح 8 عقدة من الشمال الغربي
الرؤية 10 كم أو أكثر
الغيوم لا تقل 1500 م ولا وجود لمزنة ركامية السحاب الأسود

TAF: ZYTX 251505Z 2518/2618 32004MPS CAVOK TX24/2606Z TN11/2521Z

أرصاد الطقس والتوقعات من أكثر من 4000 مطار (تقارير الطقس للمطار METAR والتنبؤ بالطقس بالمطارTAF).

المحطات المتاحة هي النقط الصفراء والحمراء على الخريطة.

حرك المؤشر فوق النقطة لمعرفة اسم المحطة.

ثم انقر لمعرفة أرصاد وتوقعات الطقس.

لتغيير الخارطة: اضغط على الأزرار الخضراء مع رمز الصليب الأسود للتكبير. على الزر الأخضر مع شرطة للتصغير، أو على الأسهم الخضراء للخرائط المجاورة.


METAR-TAF: